createdAt,value
2022-11-10T00:03:36.073Z,3.28
2022-11-10T00:06:07.506Z,3.60
2022-11-10T00:08:34.645Z,3.60
2022-11-10T00:16:22.364Z,3.35
2022-11-10T00:18:48.926Z,3.72
2022-11-10T00:21:16.587Z,3.15
2022-11-10T00:23:43.299Z,3.28
2022-11-10T00:26:15.387Z,3.22
2022-11-10T00:28:42.774Z,3.83
2022-11-10T00:31:10.193Z,3.05
2022-11-10T00:33:42.009Z,3.17
2022-11-10T00:36:09.060Z,3.38
2022-11-10T00:38:35.604Z,2.80
2022-11-10T00:41:02.476Z,3.40
2022-11-10T00:43:30.109Z,2.53
2022-11-10T00:45:57.223Z,2.97
2022-11-10T00:48:23.717Z,3.28
2022-11-10T00:50:50.264Z,2.85
2022-11-10T00:53:16.807Z,3.03
2022-11-10T00:55:43.695Z,2.60
2022-11-10T00:58:10.175Z,3.00
2022-11-10T01:00:36.727Z,3.20
2022-11-10T01:03:03.658Z,2.92
2022-11-10T01:05:30.797Z,3.08
2022-11-10T01:07:59.483Z,3.50
2022-11-10T01:10:27.178Z,2.80
2022-11-10T01:12:54.219Z,2.72
2022-11-10T01:15:26.139Z,2.53
2022-11-10T01:17:56.025Z,3.33
2022-11-10T01:20:23.469Z,2.58
2022-11-10T01:22:51.322Z,3.17
2022-11-10T01:25:17.914Z,3.35
2022-11-10T01:27:48.805Z,2.83
2022-11-10T01:30:15.462Z,2.78
2022-11-10T01:32:49.252Z,2.35
2022-11-10T01:35:16.258Z,3.28
2022-11-10T01:37:42.836Z,2.83
2022-11-10T01:40:10.519Z,2.80
2022-11-10T01:43:03.502Z,2.65
2022-11-10T01:46:01.295Z,2.88
2022-11-10T01:48:47.231Z,2.80
2022-11-10T01:51:31.834Z,1.98
2022-11-10T01:54:12.967Z,2.40
2022-11-10T01:56:44.775Z,2.65
2022-11-10T01:59:19.975Z,2.80
2022-11-10T02:01:56.280Z,2.63
2022-11-10T02:04:23.376Z,3.05
2022-11-10T02:06:50.779Z,2.58
2022-11-10T02:09:31.545Z,2.90
2022-11-10T02:11:58.187Z,2.33
2022-11-10T02:14:29.311Z,2.38
2022-11-10T02:16:57.391Z,2.63
2022-11-10T02:19:27.326Z,2.70
2022-11-10T02:21:53.782Z,2.60
2022-11-10T02:24:20.298Z,2.40
2022-11-10T02:26:51.016Z,3.00
2022-11-10T02:29:17.468Z,2.85
2022-11-10T02:31:46.809Z,2.38
2022-11-10T02:34:14.769Z,2.72
2022-11-10T02:36:44.375Z,2.30
2022-11-10T02:39:28.708Z,2.47
2022-11-10T02:41:55.180Z,2.42
2022-11-10T02:44:24.622Z,2.30
2022-11-10T02:46:55.096Z,2.55
2022-11-10T02:49:26.619Z,2.58
2022-11-10T02:51:53.077Z,2.42
2022-11-10T02:54:19.606Z,2.28
2022-11-10T02:56:46.068Z,2.25
2022-11-10T02:59:12.550Z,2.63
2022-11-10T03:01:39.173Z,2.08
2022-11-10T03:04:06.218Z,2.10
2022-11-10T03:06:33.213Z,1.92
2022-11-10T03:09:00.443Z,2.00
2022-11-10T03:11:32.058Z,2.20
2022-11-10T03:14:01.979Z,2.47
2022-11-10T03:16:29.002Z,2.22
2022-11-10T03:18:55.494Z,2.40
2022-11-10T03:21:21.957Z,1.90
2022-11-10T03:23:48.425Z,2.17
2022-11-10T03:26:14.896Z,2.30
2022-11-10T03:28:41.363Z,2.42
2022-11-10T03:31:07.994Z,2.03
2022-11-10T03:33:35.598Z,1.98
2022-11-10T03:36:02.111Z,2.28
2022-11-10T03:38:28.606Z,2.30
2022-11-10T03:41:18.286Z,2.30
2022-11-10T03:43:41.514Z,1.90
2022-11-10T03:46:08.437Z,2.50
2022-11-10T03:48:35.138Z,2.35
2022-11-10T03:51:01.631Z,2.10
2022-11-10T03:53:28.066Z,2.20
2022-11-10T03:55:54.661Z,2.22
2022-11-10T03:58:21.151Z,1.98
2022-11-10T04:00:47.641Z,1.90
2022-11-10T04:03:14.164Z,1.90
2022-11-10T04:05:59.209Z,2.00
2022-11-10T04:08:43.991Z,2.15
2022-11-10T04:11:10.428Z,1.83
2022-11-10T04:13:55.295Z,2.00
2022-11-10T04:16:21.796Z,1.70
2022-11-10T04:18:48.246Z,2.10
2022-11-10T04:21:15.120Z,2.15
2022-11-10T04:23:41.572Z,1.90
2022-11-10T04:26:29.443Z,2.10
2022-11-10T04:29:00.964Z,1.85
2022-11-10T04:31:29.215Z,2.05
2022-11-10T04:33:56.480Z,2.05
2022-11-10T04:36:25.923Z,1.90
2022-11-10T04:38:52.706Z,2.20
2022-11-10T04:41:19.211Z,2.15
2022-11-10T04:43:45.678Z,2.22
2022-11-10T04:46:40.756Z,1.98
2022-11-10T04:49:07.496Z,2.10
2022-11-10T04:51:36.654Z,1.80
2022-11-10T04:54:04.249Z,2.70
2022-11-10T04:56:31.013Z,2.00
2022-11-10T04:58:57.552Z,2.00
2022-11-10T05:01:26.942Z,2.20
2022-11-10T05:03:54.280Z,1.70
2022-11-10T05:08:47.806Z,1.50
2022-11-10T05:11:14.530Z,1.98
2022-11-10T05:13:41.822Z,2.13
2022-11-10T05:18:35.442Z,1.75
2022-11-10T05:21:01.875Z,2.00
2022-11-10T05:23:41.728Z,1.80
2022-11-10T05:26:11.194Z,1.83
2022-11-10T05:28:38.656Z,1.90
2022-11-10T05:31:05.698Z,1.60
2022-11-10T05:33:32.999Z,2.15
2022-11-10T05:38:25.935Z,1.73
2022-11-10T05:40:52.638Z,1.85
2022-11-10T05:43:19.423Z,1.63
2022-11-10T05:45:46.107Z,1.85
2022-11-10T05:48:12.571Z,2.08
2022-11-10T05:50:39.367Z,1.95
2022-11-10T05:53:05.855Z,1.92
2022-11-10T05:55:32.314Z,1.85
2022-11-10T05:57:58.876Z,1.67
2022-11-10T06:00:27.828Z,2.33
2022-11-10T06:03:12.667Z,1.77
2022-11-10T06:05:39.443Z,2.00
2022-11-10T06:08:06.818Z,2.00
2022-11-10T06:13:01.080Z,1.75
2022-11-10T06:15:28.095Z,1.65
2022-11-10T06:17:55.186Z,2.00
2022-11-10T06:20:22.371Z,2.08
2022-11-10T06:22:59.863Z,2.10
2022-11-10T06:25:27.244Z,1.77
2022-11-10T06:30:20.876Z,1.80
2022-11-10T06:32:47.398Z,2.28
2022-11-10T06:35:13.933Z,2.13
2022-11-10T06:37:40.567Z,1.70
2022-11-10T06:40:07.930Z,1.92
2022-11-10T06:45:01.461Z,1.90
2022-11-10T06:47:27.924Z,1.77
2022-11-10T06:49:54.383Z,1.67
2022-11-10T06:52:20.964Z,2.38
2022-11-10T06:54:47.446Z,2.47
2022-11-10T06:57:13.896Z,1.98
2022-11-10T06:59:40.380Z,3.45
2022-11-10T07:02:13.740Z,1.90
2022-11-10T07:04:40.311Z,2.10
2022-11-10T07:07:06.830Z,2.20
2022-11-10T07:09:33.317Z,2.05
2022-11-10T07:11:59.772Z,2.33
2022-11-10T07:14:26.278Z,1.90
2022-11-10T07:16:52.748Z,2.15
2022-11-10T07:19:19.213Z,1.98
2022-11-10T07:21:45.672Z,2.20
2022-11-10T07:24:12.273Z,2.28
2022-11-10T07:26:38.758Z,2.35
2022-11-10T07:29:05.254Z,2.05
2022-11-10T07:31:31.755Z,2.08
2022-11-10T07:33:58.256Z,2.50
2022-11-10T07:36:28.841Z,2.15
2022-11-10T07:38:55.622Z,2.03
2022-11-10T07:41:22.122Z,2.20
2022-11-10T07:43:48.588Z,2.30
2022-11-10T07:46:15.055Z,2.60
2022-11-10T07:48:41.524Z,2.30
2022-11-10T07:51:07.984Z,2.42
2022-11-10T07:53:34.479Z,2.42
2022-11-10T07:56:00.936Z,2.50
2022-11-10T07:58:27.376Z,2.20
2022-11-10T08:00:53.847Z,2.35
2022-11-10T08:03:22.356Z,2.85
2022-11-10T08:05:49.087Z,2.10
2022-11-10T08:08:15.567Z,2.13
2022-11-10T08:10:42.161Z,2.45
2022-11-10T08:13:10.530Z,1.92
2022-11-10T08:15:38.027Z,2.70
2022-11-10T08:18:15.162Z,2.38
2022-11-10T08:20:42.202Z,2.03
2022-11-10T08:23:09.040Z,2.10
2022-11-10T08:25:38.035Z,2.55
2022-11-10T08:28:08.120Z,2.35
2022-11-10T08:30:36.264Z,2.63
2022-11-10T08:33:05.010Z,2.08
2022-11-10T08:35:34.788Z,2.17
2022-11-10T08:38:21.830Z,2.35
2022-11-10T08:40:48.711Z,2.08
2022-11-10T08:43:16.363Z,2.70
2022-11-10T08:45:43.981Z,2.60
2022-11-10T08:48:12.030Z,2.00
2022-11-10T08:50:39.087Z,2.42
2022-11-10T08:53:10.327Z,1.80
2022-11-10T08:55:36.827Z,2.00
2022-11-10T08:58:04.876Z,2.30
2022-11-10T09:00:32.864Z,2.20
2022-11-10T09:03:15.452Z,2.00
2022-11-10T09:05:42.382Z,1.80
2022-11-10T09:08:09.597Z,2.10
2022-11-10T09:10:39.709Z,2.05
2022-11-10T09:13:07.079Z,2.20
2022-11-10T09:18:02.068Z,2.20
2022-11-10T09:20:30.995Z,1.98
2022-11-10T09:23:03.698Z,2.00
2022-11-10T09:25:30.147Z,2.00
2022-11-10T09:27:56.599Z,1.85
2022-11-10T09:30:23.242Z,2.20
2022-11-10T09:33:00.518Z,2.03
2022-11-10T09:35:27.896Z,1.27
2022-11-10T09:40:29.836Z,1.70
2022-11-10T09:43:00.344Z,1.90
2022-11-10T09:45:38.743Z,1.98
2022-11-10T09:48:30.706Z,2.17
2022-11-10T09:51:08.642Z,1.73
2022-11-10T09:53:41.715Z,2.00
2022-11-10T09:56:17.022Z,2.13
2022-11-10T09:58:45.783Z,1.70
2022-11-10T10:01:28.822Z,1.63
2022-11-10T10:04:03.909Z,1.55
2022-11-10T10:06:49.875Z,1.40
2022-11-10T10:09:47.473Z,1.73
2022-11-10T10:12:31.088Z,1.65
2022-11-10T10:15:12.800Z,1.80
2022-11-10T10:17:57.844Z,2.08
2022-11-10T10:20:24.264Z,1.50
2022-11-10T10:23:09.564Z,1.88
2022-11-10T10:25:39.886Z,1.80
2022-11-10T10:28:19.052Z,1.35
2022-11-10T10:30:45.756Z,1.65
2022-11-10T10:33:16.772Z,1.60
2022-11-10T10:35:44.496Z,1.80
2022-11-10T10:38:34.783Z,1.63
2022-11-10T10:41:13.634Z,1.52
2022-11-10T10:43:47.416Z,1.88
2022-11-10T10:46:19.368Z,1.50
2022-11-10T10:48:50.522Z,1.95
2022-11-10T10:51:29.468Z,1.38
2022-11-10T10:53:55.939Z,1.45
2022-11-10T10:56:28.700Z,1.17
2022-11-10T10:58:57.688Z,1.42
2022-11-10T11:01:28.965Z,1.35
2022-11-10T11:03:55.447Z,1.40
2022-11-10T11:06:23.220Z,1.23
2022-11-10T11:09:22.816Z,1.50
2022-11-10T11:12:01.515Z,1.70
2022-11-10T11:14:30.504Z,1.33
2022-11-10T11:16:56.916Z,1.42
2022-11-10T11:19:33.412Z,1.40
2022-11-10T11:22:27.494Z,1.42
2022-11-10T11:25:24.852Z,1.60
2022-11-10T11:28:17.752Z,1.63
2022-11-10T11:31:06.607Z,1.50
2022-11-10T11:33:41.756Z,1.42
2022-11-10T11:36:22.170Z,1.25
2022-11-10T11:38:54.800Z,1.33
2022-11-10T11:41:38.816Z,1.20
2022-11-10T11:44:37.886Z,1.13
2022-11-10T11:47:25.636Z,1.20
2022-11-10T11:50:23.574Z,1.17
2022-11-10T11:53:18.848Z,1.20
2022-11-10T11:56:22.256Z,1.35
2022-11-10T11:58:59.386Z,1.35
2022-11-10T12:01:34.688Z,1.30
2022-11-10T12:04:25.404Z,1.33
2022-11-10T12:07:17.179Z,1.30
2022-11-10T12:10:12.979Z,1.13
2022-11-10T12:13:01.125Z,1.00
2022-11-10T12:15:49.529Z,1.00
2022-11-10T12:18:34.497Z,1.42
2022-11-10T12:21:45.145Z,1.40
2022-11-10T12:24:19.034Z,1.33
2022-11-10T12:26:48.042Z,1.20
2022-11-10T12:29:39.852Z,1.15
2022-11-10T12:32:29.485Z,0.90
2022-11-10T12:35:06.616Z,1.08
2022-11-10T12:37:40.384Z,1.20
2022-11-10T12:40:42.040Z,0.85
2022-11-10T12:43:23.663Z,1.38
2022-11-10T12:45:54.516Z,0.88
2022-11-10T12:48:22.251Z,0.93
2022-11-10T12:51:13.779Z,0.98
2022-11-10T12:53:42.435Z,1.17
2022-11-10T12:56:39.463Z,1.00
2022-11-10T12:59:21.928Z,1.25
2022-11-10T13:01:56.842Z,1.00
2022-11-10T13:04:23.884Z,1.30
2022-11-10T13:06:57.702Z,1.10
2022-11-10T13:09:27.172Z,0.98
2022-11-10T13:12:16.784Z,1.08
2022-11-10T13:14:44.891Z,1.08
2022-11-10T13:17:31.575Z,1.10
2022-11-10T13:20:20.843Z,0.90
2022-11-10T13:22:47.455Z,1.10
2022-11-10T13:25:35.713Z,0.90
2022-11-10T13:28:03.076Z,1.13
2022-11-10T13:33:38.314Z,0.82
2022-11-10T13:36:05.307Z,0.88
2022-11-10T13:38:31.717Z,0.80
2022-11-10T13:41:16.548Z,0.80
2022-11-10T13:43:52.213Z,0.93
2022-11-10T13:46:20.169Z,0.80
2022-11-10T13:49:15.485Z,0.80
2022-11-10T13:52:06.500Z,0.82
2022-11-10T13:54:41.735Z,0.70
2022-11-10T13:57:12.544Z,0.60
2022-11-10T14:00:25.113Z,0.60
2022-11-10T14:03:01.251Z,0.90
2022-11-10T14:05:38.316Z,0.75
2022-11-10T14:08:25.390Z,1.02
2022-11-10T14:11:04.615Z,0.70
2022-11-10T14:13:41.842Z,0.90
2022-11-10T14:16:24.171Z,1.00
2022-11-10T14:18:58.020Z,0.70
2022-11-10T14:21:43.367Z,0.90
2022-11-10T14:24:16.717Z,0.70
2022-11-10T14:29:26.568Z,0.80
2022-11-10T14:31:53.148Z,0.75
2022-11-10T14:34:19.812Z,0.90
2022-11-10T14:37:01.277Z,0.80
2022-11-10T14:39:32.833Z,0.80
2022-11-10T14:42:02.647Z,0.82
2022-11-10T14:44:30.727Z,0.90
2022-11-10T14:47:15.718Z,0.55
2022-11-10T14:49:43.818Z,0.88
2022-11-10T14:52:13.737Z,0.60
2022-11-10T14:54:45.986Z,0.93
2022-11-10T14:57:18.376Z,0.85
2022-11-10T14:59:45.096Z,0.70
2022-11-10T15:02:16.895Z,0.70
2022-11-10T15:04:46.176Z,0.60
2022-11-10T15:07:13.247Z,0.70
2022-11-10T15:09:39.852Z,0.80
2022-11-10T15:12:20.065Z,0.52
2022-11-10T15:14:47.762Z,0.68
2022-11-10T15:17:20.374Z,0.50
2022-11-10T15:19:46.944Z,0.80
2022-11-10T15:22:18.384Z,0.60
2022-11-10T15:24:46.897Z,0.70
2022-11-10T15:27:27.985Z,0.60
2022-11-10T15:29:57.383Z,0.60
2022-11-10T15:32:31.343Z,0.60
2022-11-10T15:35:09.402Z,1.02
2022-11-10T15:37:35.917Z,0.70
2022-11-10T15:40:30.369Z,0.60
2022-11-10T15:43:09.826Z,0.95
2022-11-10T15:48:04.610Z,0.60
2022-11-10T15:50:31.339Z,1.05
2022-11-10T15:52:58.391Z,0.90
2022-11-10T15:55:25.218Z,0.82
2022-11-10T15:57:51.667Z,0.90
2022-11-10T16:00:18.334Z,0.98
2022-11-10T16:02:44.819Z,0.77
2022-11-10T16:05:12.564Z,0.90
2022-11-10T16:07:39.037Z,0.73
2022-11-10T16:10:06.379Z,0.68
2022-11-10T16:14:59.714Z,0.93
2022-11-10T16:17:26.511Z,0.80
2022-11-10T16:19:53.031Z,0.90
2022-11-10T16:22:19.483Z,0.70
2022-11-10T16:24:45.939Z,1.00
2022-11-10T16:27:14.263Z,0.70
2022-11-10T16:29:42.063Z,0.65
2022-11-10T16:32:11.532Z,0.88
2022-11-10T16:34:38.044Z,0.60
2022-11-10T16:37:04.579Z,0.70
2022-11-10T16:39:31.851Z,0.80
2022-11-10T16:41:58.327Z,0.60
2022-11-10T16:44:25.662Z,0.90
2022-11-10T16:46:58.683Z,0.70
2022-11-10T16:49:31.643Z,0.85
2022-11-10T16:51:58.336Z,0.70
2022-11-10T16:54:24.864Z,0.63
2022-11-10T16:56:51.380Z,1.00
2022-11-10T16:59:17.814Z,0.90
2022-11-10T17:01:46.691Z,0.73
2022-11-10T17:04:14.072Z,0.77
2022-11-10T17:09:09.726Z,0.70
2022-11-10T17:11:36.288Z,0.80
2022-11-10T17:14:02.821Z,1.00
2022-11-10T17:16:36.056Z,0.70
2022-11-10T17:19:04.924Z,0.80
2022-11-10T17:21:34.075Z,0.90
2022-11-10T17:24:01.857Z,0.73
2022-11-10T17:26:29.591Z,0.70
2022-11-10T17:28:56.488Z,0.52
2022-11-10T17:31:22.936Z,0.95
2022-11-10T17:33:49.399Z,1.35
2022-11-10T17:36:20.076Z,0.70
2022-11-10T17:38:47.052Z,0.82
2022-11-10T17:41:19.118Z,0.82
2022-11-10T17:43:46.356Z,0.82
2022-11-10T17:46:16.014Z,0.80
2022-11-10T17:48:43.045Z,1.00
2022-11-10T17:51:19.698Z,1.05
2022-11-10T17:53:46.530Z,0.85
2022-11-10T17:56:13.196Z,0.70
2022-11-10T17:58:39.811Z,0.82
2022-11-10T18:01:15.731Z,0.90
2022-11-10T18:03:42.404Z,0.90
2022-11-10T18:06:13.282Z,0.88
2022-11-10T18:08:39.740Z,1.10
2022-11-10T18:11:06.189Z,1.08
2022-11-10T18:13:32.623Z,1.27
2022-11-10T18:16:00.496Z,1.00
2022-11-10T18:18:26.957Z,1.23
2022-11-10T18:20:53.426Z,0.90
2022-11-10T18:23:20.070Z,0.82
2022-11-10T18:25:46.773Z,1.20
2022-11-10T18:28:14.607Z,1.10
2022-11-10T18:30:41.332Z,1.38
2022-11-10T18:33:07.899Z,1.33
2022-11-10T18:35:38.434Z,1.20
2022-11-10T18:38:06.730Z,1.10
2022-11-10T18:40:33.664Z,1.08
2022-11-10T18:43:06.148Z,1.45
2022-11-10T18:45:33.871Z,1.30
2022-11-10T18:48:03.205Z,1.38
2022-11-10T18:50:30.632Z,1.33
2022-11-10T18:52:57.637Z,1.33
2022-11-10T18:55:24.788Z,1.67
2022-11-10T18:57:51.303Z,1.42
2022-11-10T19:00:17.847Z,1.30
2022-11-10T19:02:44.320Z,1.25
2022-11-10T19:05:10.813Z,1.52
2022-11-10T19:07:37.289Z,1.20
2022-11-10T19:10:04.248Z,1.52
2022-11-10T19:12:31.599Z,1.25
2022-11-10T19:17:24.385Z,1.40
2022-11-10T19:19:55.973Z,1.50
2022-11-10T19:22:23.042Z,1.70
2022-11-10T19:25:06.989Z,2.13
2022-11-10T19:27:34.491Z,1.50
2022-11-10T19:30:00.987Z,1.60
2022-11-10T19:32:27.462Z,1.90
2022-11-10T19:34:53.947Z,1.70
2022-11-10T19:37:20.838Z,1.80
2022-11-10T19:39:47.320Z,1.60
2022-11-10T19:42:13.822Z,1.73
2022-11-10T19:44:40.319Z,1.80
2022-11-10T19:47:07.021Z,1.75
2022-11-10T19:49:33.543Z,1.65
2022-11-10T19:51:59.981Z,1.33
2022-11-10T19:54:26.440Z,1.70
2022-11-10T19:56:52.895Z,1.65
2022-11-10T19:59:21.095Z,2.03
2022-11-10T20:01:47.629Z,1.65
2022-11-10T20:04:14.203Z,1.98
2022-11-10T20:06:40.726Z,1.58
2022-11-10T20:09:07.239Z,1.60
2022-11-10T20:11:34.144Z,2.20
2022-11-10T20:14:00.683Z,1.63
2022-11-10T20:16:27.314Z,1.95
2022-11-10T20:18:53.832Z,1.70
2022-11-10T20:21:23.619Z,1.45
2022-11-10T20:23:55.453Z,1.60
2022-11-10T20:26:22.633Z,2.00
2022-11-10T20:28:49.503Z,1.90
2022-11-10T20:31:22.124Z,1.90
2022-11-10T20:33:49.344Z,1.80
2022-11-10T20:36:26.000Z,1.98
2022-11-10T20:38:53.919Z,1.92
2022-11-10T20:41:22.947Z,2.05
2022-11-10T20:43:49.909Z,2.30
2022-11-10T20:46:40.420Z,1.83
2022-11-10T20:49:05.610Z,2.40
2022-11-10T20:51:32.042Z,2.15
2022-11-10T20:54:01.306Z,2.30
2022-11-10T20:56:29.986Z,1.77
2022-11-10T20:58:57.672Z,2.45
2022-11-10T21:03:51.416Z,2.65
2022-11-10T21:06:17.899Z,2.00
2022-11-10T21:08:44.467Z,2.63
2022-11-10T21:11:11.232Z,2.40
2022-11-10T21:13:37.846Z,1.90
2022-11-10T21:16:06.487Z,2.17
2022-11-10T21:18:36.715Z,2.13
2022-11-10T21:21:04.726Z,2.60
2022-11-10T21:23:31.388Z,2.15
2022-11-10T21:26:00.311Z,2.15
2022-11-10T21:28:27.639Z,1.80
2022-11-10T21:33:30.376Z,1.98
2022-11-10T21:35:56.871Z,1.65
2022-11-10T21:38:23.326Z,2.00
2022-11-10T21:40:49.778Z,2.65
2022-11-10T21:43:16.203Z,2.30
2022-11-10T21:45:42.700Z,2.30
2022-11-10T21:48:09.130Z,1.90
2022-11-10T21:50:35.598Z,1.95
2022-11-10T21:53:07.910Z,1.63
2022-11-10T21:55:34.436Z,2.03
2022-11-10T21:58:00.918Z,1.83
2022-11-10T22:00:27.776Z,2.15
2022-11-10T22:03:03.540Z,2.00
2022-11-10T22:05:29.975Z,2.20
2022-11-10T22:07:56.446Z,2.35
2022-11-10T22:10:41.503Z,2.30
2022-11-10T22:13:33.971Z,2.60
2022-11-10T22:16:18.829Z,2.30
2022-11-10T22:18:46.591Z,2.20
2022-11-10T22:21:13.039Z,2.25
2022-11-10T22:23:58.055Z,2.42
2022-11-10T22:26:24.559Z,2.25
2022-11-10T22:28:50.999Z,1.60
2022-11-10T22:31:17.446Z,2.35
2022-11-10T22:33:43.976Z,1.70
2022-11-10T22:36:13.604Z,2.20
2022-11-10T22:38:41.684Z,1.85
2022-11-10T22:41:34.140Z,1.92
2022-11-10T22:44:04.749Z,2.13
2022-11-10T22:46:42.873Z,2.30
2022-11-10T22:49:11.238Z,1.73
2022-11-10T22:51:38.702Z,2.28
2022-11-10T22:54:09.111Z,2.03
2022-11-10T22:56:35.629Z,2.00
2022-11-10T22:59:02.459Z,2.17
2022-11-10T23:01:29.400Z,2.22
2022-11-10T23:04:00.333Z,2.13
2022-11-10T23:06:27.911Z,1.65
2022-11-10T23:08:54.907Z,2.30
2022-11-10T23:11:23.876Z,2.75
2022-11-10T23:13:50.656Z,2.35
2022-11-10T23:16:19.903Z,2.13
2022-11-10T23:18:47.918Z,2.20
2022-11-10T23:21:16.058Z,2.00
2022-11-10T23:23:43.381Z,2.33
2022-11-10T23:26:30.207Z,2.03
2022-11-10T23:28:56.852Z,2.20
2022-11-10T23:31:25.543Z,1.92
2022-11-10T23:33:54.313Z,1.92
2022-11-10T23:36:22.356Z,1.77
2022-11-10T23:38:48.837Z,1.90
2022-11-10T23:41:17.689Z,1.92
2022-11-10T23:43:44.522Z,2.08
2022-11-10T23:46:12.004Z,1.90
2022-11-10T23:48:39.550Z,2.05
2022-11-10T23:51:07.540Z,2.28
2022-11-10T23:53:33.986Z,2.17
2022-11-10T23:56:06.185Z,2.10
2022-11-10T23:58:32.988Z,2.00
